GRKNM EGPJ-EGBJ
Flight info
| Callsign | GRKNM |
|---|---|
| Flight time | 1h 24m |
| Altitude | 8500 |
| Route | RIG DCS |
| Aircraft | AC50/L-FRV/C |
Departure
| Time | 2026-04-30 20:58 |
|---|---|
| Airport | Fife Airport (EGPJ) |
Arrival
| Time | 2026-04-30 22:22 |
|---|---|
| Airport | Gloucestershire Airport (EGBJ) |
| Time | Latitude | Longitude | Altitude | Speed | Heading |
|---|---|---|---|---|---|
| 2026-04-30 20:52 | 56.18378 | -3.21676 | 404 ft | 0 kts | 324° |
| 2026-04-30 20:55 | 56.18388 | -3.21682 | 404 ft | 10 kts | 358° |
| 2026-04-30 20:55 | 56.18402 | -3.21667 | 404 ft | 5 kts | 61° |
| 2026-04-30 20:56 | 56.18463 | -3.21590 | 404 ft | 8 kts | 36° |
| 2026-04-30 20:56 | 56.18479 | -3.21537 | 404 ft | 6 kts | 334° |
| 2026-04-30 20:56 | 56.18482 | -3.21561 | 404 ft | 0 kts | 244° |
| 2026-04-30 20:57 | 56.18459 | -3.21633 | 404 ft | 34 kts | 238° |
| 2026-04-30 20:57 | 56.18232 | -3.22349 | 514 ft | 82 kts | 240° |
| 2026-04-30 20:58 | 56.17698 | -3.24300 | 1306 ft | 104 kts | 226° |
| 2026-04-30 20:58 | 56.16974 | -3.24568 | 1606 ft | 121 kts | 153° |
| 2026-04-30 20:58 | 56.16569 | -3.23257 | 1927 ft | 127 kts | 100° |
| 2026-04-30 20:58 | 56.16401 | -3.21625 | 2214 ft | 138 kts | 97° |
| 2026-04-30 20:59 | 56.16133 | -3.18000 | 2747 ft | 155 kts | 94° |
| 2026-04-30 20:59 | 56.16015 | -3.16044 | 3007 ft | 160 kts | 94° |
| 2026-04-30 21:00 | 56.15789 | -3.11917 | 3420 ft | 172 kts | 93° |
| 2026-04-30 21:00 | 56.15565 | -3.07518 | 3781 ft | 181 kts | 92° |
| 2026-04-30 21:01 | 56.15264 | -3.02996 | 4134 ft | 186 kts | 96° |
| 2026-04-30 21:01 | 56.15084 | -3.00683 | 4311 ft | 188 kts | 96° |
| 2026-04-30 21:01 | 56.14280 | -2.96185 | 4665 ft | 191 kts | 113° |
| 2026-04-30 21:02 | 56.13739 | -2.93993 | 4841 ft | 193 kts | 114° |
| 2026-04-30 21:02 | 56.13180 | -2.91827 | 5015 ft | 194 kts | 118° |
| 2026-04-30 21:02 | 56.12340 | -2.89948 | 5205 ft | 192 kts | 137° |
| 2026-04-30 21:02 | 56.11349 | -2.88351 | 5454 ft | 189 kts | 142° |
| 2026-04-30 21:03 | 56.10327 | -2.86883 | 5703 ft | 187 kts | 147° |
| 2026-04-30 21:03 | 56.09263 | -2.85556 | 5953 ft | 186 kts | 150° |
| 2026-04-30 21:03 | 56.08199 | -2.84296 | 6200 ft | 185 kts | 151° |
| 2026-04-30 21:03 | 56.07117 | -2.83044 | 6450 ft | 184 kts | 153° |
| 2026-04-30 21:04 | 56.06018 | -2.81857 | 6701 ft | 184 kts | 155° |
| 2026-04-30 21:04 | 56.04911 | -2.80692 | 6952 ft | 184 kts | 155° |
| 2026-04-30 21:04 | 56.02696 | -2.78379 | 7381 ft | 189 kts | 155° |
| 2026-04-30 21:05 | 56.01501 | -2.77360 | 7477 ft | 191 kts | 170° |
| 2026-04-30 21:05 | 56.00175 | -2.76964 | 7505 ft | 195 kts | 180° |
| 2026-04-30 21:05 | 55.98818 | -2.76787 | 7504 ft | 200 kts | 182° |
| 2026-04-30 21:05 | 55.97438 | -2.76663 | 7653 ft | 196 kts | 183° |
| 2026-04-30 21:06 | 55.96083 | -2.76549 | 7823 ft | 194 kts | 183° |
| 2026-04-30 21:06 | 55.94741 | -2.76437 | 7995 ft | 192 kts | 183° |
| 2026-04-30 21:06 | 55.93406 | -2.76324 | 8169 ft | 191 kts | 183° |
| 2026-04-30 21:06 | 55.92078 | -2.76223 | 8335 ft | 191 kts | 184° |
| 2026-04-30 21:07 | 55.90758 | -2.76172 | 8454 ft | 193 kts | 185° |
| 2026-04-30 21:07 | 55.89396 | -2.76140 | 8495 ft | 198 kts | 185° |
| 2026-04-30 21:07 | 55.88002 | -2.76131 | 8502 ft | 202 kts | 186° |
| 2026-04-30 21:07 | 55.86576 | -2.76150 | 8502 ft | 205 kts | 186° |
| 2026-04-30 21:08 | 55.85146 | -2.76185 | 8501 ft | 207 kts | 187° |
| 2026-04-30 21:08 | 55.83720 | -2.76249 | 8501 ft | 207 kts | 187° |
| 2026-04-30 21:08 | 55.82272 | -2.76324 | 8500 ft | 208 kts | 187° |
| 2026-04-30 21:08 | 55.80816 | -2.76404 | 8500 ft | 208 kts | 187° |
| 2026-04-30 21:09 | 55.79382 | -2.76483 | 8500 ft | 208 kts | 187° |
| 2026-04-30 21:09 | 55.77927 | -2.76563 | 8500 ft | 208 kts | 187° |
| 2026-04-30 21:09 | 55.76478 | -2.76665 | 8500 ft | 208 kts | 188° |
| 2026-04-30 21:09 | 55.75028 | -2.76784 | 8500 ft | 208 kts | 188° |
| 2026-04-30 21:10 | 55.73580 | -2.76906 | 8500 ft | 208 kts | 188° |
| 2026-04-30 21:10 | 55.72155 | -2.77056 | 8500 ft | 208 kts | 189° |
| 2026-04-30 21:10 | 55.70711 | -2.77222 | 8500 ft | 208 kts | 189° |
| 2026-04-30 21:10 | 55.69265 | -2.77391 | 8500 ft | 208 kts | 189° |
| 2026-04-30 21:11 | 55.67828 | -2.77603 | 8500 ft | 207 kts | 191° |
| 2026-04-30 21:11 | 55.66387 | -2.77850 | 8500 ft | 207 kts | 191° |
| 2026-04-30 21:11 | 55.64971 | -2.78102 | 8500 ft | 207 kts | 191° |
| 2026-04-30 21:11 | 55.63537 | -2.78366 | 8500 ft | 207 kts | 192° |
| 2026-04-30 21:12 | 55.62098 | -2.78657 | 8500 ft | 207 kts | 192° |
| 2026-04-30 21:12 | 55.60670 | -2.78956 | 8500 ft | 206 kts | 192° |
| 2026-04-30 21:12 | 55.59259 | -2.79255 | 8500 ft | 206 kts | 192° |
| 2026-04-30 21:12 | 55.57827 | -2.79563 | 8500 ft | 206 kts | 193° |
| 2026-04-30 21:13 | 55.56425 | -2.80055 | 8501 ft | 204 kts | 199° |
| 2026-04-30 21:13 | 55.55061 | -2.80720 | 8500 ft | 203 kts | 201° |
| 2026-04-30 21:13 | 55.53706 | -2.81433 | 8500 ft | 203 kts | 202° |
| 2026-04-30 21:13 | 55.52352 | -2.82161 | 8500 ft | 203 kts | 202° |
| 2026-04-30 21:14 | 55.51015 | -2.82883 | 8500 ft | 203 kts | 202° |
| 2026-04-30 21:14 | 55.49663 | -2.83629 | 8453 ft | 205 kts | 203° |
| 2026-04-30 21:14 | 55.48291 | -2.84415 | 8343 ft | 208 kts | 203° |
| 2026-04-30 21:14 | 55.46918 | -2.85241 | 8308 ft | 206 kts | 205° |
| 2026-04-30 21:15 | 55.45577 | -2.86105 | 8301 ft | 204 kts | 206° |
| 2026-04-30 21:15 | 55.44276 | -2.86997 | 8300 ft | 203 kts | 207° |
| 2026-04-30 21:15 | 55.42971 | -2.87922 | 8300 ft | 202 kts | 207° |
| 2026-04-30 21:15 | 55.41670 | -2.88860 | 8300 ft | 201 kts | 208° |
| 2026-04-30 21:16 | 55.40376 | -2.89823 | 8300 ft | 201 kts | 208° |
| 2026-04-30 21:16 | 55.39105 | -2.90780 | 8300 ft | 201 kts | 208° |
| 2026-04-30 21:16 | 55.37817 | -2.91752 | 8300 ft | 201 kts | 208° |
| 2026-04-30 21:16 | 55.36534 | -2.92721 | 8300 ft | 201 kts | 208° |
| 2026-04-30 21:17 | 55.35250 | -2.93691 | 8300 ft | 201 kts | 208° |
| 2026-04-30 21:17 | 55.33964 | -2.94661 | 8300 ft | 201 kts | 208° |
| 2026-04-30 21:17 | 55.32681 | -2.95629 | 8300 ft | 200 kts | 208° |
| 2026-04-30 21:17 | 55.31414 | -2.96583 | 8300 ft | 201 kts | 208° |
| 2026-04-30 21:18 | 55.30125 | -2.97526 | 8300 ft | 201 kts | 207° |
| 2026-04-30 21:18 | 55.28834 | -2.98457 | 8300 ft | 201 kts | 207° |
| 2026-04-30 21:18 | 55.27531 | -2.99370 | 8300 ft | 201 kts | 207° |
| 2026-04-30 21:18 | 55.26221 | -3.00258 | 8300 ft | 201 kts | 206° |
| 2026-04-30 21:19 | 55.24903 | -3.01113 | 8300 ft | 202 kts | 205° |
| 2026-04-30 21:19 | 55.23590 | -3.01913 | 8300 ft | 202 kts | 204° |
| 2026-04-30 21:19 | 55.22248 | -3.02694 | 8300 ft | 202 kts | 204° |
| 2026-04-30 21:19 | 55.20909 | -3.03454 | 8300 ft | 202 kts | 203° |
| 2026-04-30 21:20 | 55.19563 | -3.04188 | 8300 ft | 202 kts | 202° |
| 2026-04-30 21:20 | 55.18231 | -3.04906 | 8300 ft | 203 kts | 202° |
| 2026-04-30 21:20 | 55.16876 | -3.05633 | 8300 ft | 203 kts | 202° |
| 2026-04-30 21:20 | 55.15525 | -3.06357 | 8300 ft | 203 kts | 202° |
| 2026-04-30 21:21 | 55.14203 | -3.07063 | 8391 ft | 198 kts | 202° |
| 2026-04-30 21:21 | 55.12887 | -3.07761 | 8474 ft | 197 kts | 202° |
| 2026-04-30 21:21 | 55.10235 | -3.09170 | 8500 ft | 201 kts | 202° |
| 2026-04-30 21:22 | 55.08897 | -3.09894 | 8501 ft | 201 kts | 203° |
| 2026-04-30 21:22 | 55.04914 | -3.12271 | 8500 ft | 202 kts | 205° |
| 2026-04-30 21:23 | 55.03601 | -3.13128 | 8500 ft | 202 kts | 206° |
| 2026-04-30 21:23 | 55.02290 | -3.14004 | 8500 ft | 202 kts | 206° |
| 2026-04-30 21:23 | 54.99690 | -3.15797 | 8500 ft | 201 kts | 207° |
| 2026-04-30 21:24 | 54.98390 | -3.16716 | 8500 ft | 201 kts | 207° |
| 2026-04-30 21:24 | 54.97092 | -3.17637 | 8500 ft | 201 kts | 207° |
| 2026-04-30 21:24 | 54.95792 | -3.18559 | 8500 ft | 201 kts | 207° |
| 2026-04-30 21:24 | 54.94488 | -3.19468 | 8500 ft | 201 kts | 207° |
| 2026-04-30 21:25 | 54.91882 | -3.21232 | 8500 ft | 202 kts | 206° |
| 2026-04-30 21:25 | 54.90582 | -3.22106 | 8500 ft | 202 kts | 206° |
| 2026-04-30 21:25 | 54.89274 | -3.22985 | 8500 ft | 202 kts | 206° |
| 2026-04-30 21:26 | 54.86650 | -3.24746 | 8500 ft | 202 kts | 206° |
| 2026-04-30 21:26 | 54.85337 | -3.25625 | 8500 ft | 202 kts | 206° |
| 2026-04-30 21:27 | 54.82717 | -3.27313 | 8500 ft | 202 kts | 205° |
| 2026-04-30 21:27 | 54.81395 | -3.28153 | 8500 ft | 202 kts | 205° |
| 2026-04-30 21:27 | 54.80087 | -3.28982 | 8500 ft | 202 kts | 205° |
| 2026-04-30 21:28 | 54.77436 | -3.30662 | 8500 ft | 202 kts | 205° |
| 2026-04-30 21:28 | 54.76131 | -3.31488 | 8500 ft | 202 kts | 205° |
| 2026-04-30 21:28 | 54.73460 | -3.33072 | 8500 ft | 204 kts | 200° |
| 2026-04-30 21:29 | 54.72075 | -3.33544 | 8501 ft | 206 kts | 193° |
| 2026-04-30 21:29 | 54.67739 | -3.33986 | 8500 ft | 209 kts | 185° |
| 2026-04-30 21:30 | 54.64843 | -3.33913 | 8500 ft | 209 kts | 185° |
| 2026-04-30 21:31 | 54.60467 | -3.33796 | 8500 ft | 208 kts | 188° |
| 2026-04-30 21:31 | 54.57584 | -3.34151 | 8500 ft | 207 kts | 190° |
| 2026-04-30 21:32 | 54.54730 | -3.34559 | 8500 ft | 207 kts | 190° |
| 2026-04-30 21:32 | 54.53288 | -3.34768 | 8500 ft | 207 kts | 190° |
| 2026-04-30 21:32 | 54.51848 | -3.34976 | 8500 ft | 207 kts | 190° |
| 2026-04-30 21:32 | 54.50409 | -3.35184 | 8500 ft | 207 kts | 190° |
| 2026-04-30 21:33 | 54.48973 | -3.35392 | 8500 ft | 207 kts | 190° |
| 2026-04-30 21:33 | 54.46117 | -3.35806 | 8500 ft | 207 kts | 190° |
| 2026-04-30 21:33 | 54.44680 | -3.36014 | 8500 ft | 207 kts | 190° |
| 2026-04-30 21:34 | 54.43239 | -3.36223 | 8500 ft | 207 kts | 190° |
| 2026-04-30 21:34 | 54.40378 | -3.36618 | 8500 ft | 207 kts | 189° |
| 2026-04-30 21:34 | 54.38936 | -3.36790 | 8500 ft | 207 kts | 189° |
| 2026-04-30 21:35 | 54.37493 | -3.36957 | 8500 ft | 207 kts | 189° |
| 2026-04-30 21:35 | 54.36051 | -3.37123 | 8500 ft | 207 kts | 189° |
| 2026-04-30 21:35 | 54.34611 | -3.37271 | 8500 ft | 208 kts | 189° |
| 2026-04-30 21:35 | 54.33162 | -3.37397 | 8500 ft | 208 kts | 188° |
| 2026-04-30 21:36 | 54.31731 | -3.37489 | 8500 ft | 208 kts | 187° |
| 2026-04-30 21:36 | 54.30273 | -3.37573 | 8500 ft | 208 kts | 187° |
| 2026-04-30 21:37 | 54.25934 | -3.37751 | 8500 ft | 208 kts | 186° |
| 2026-04-30 21:37 | 54.24493 | -3.37789 | 8500 ft | 208 kts | 186° |
| 2026-04-30 21:37 | 54.23037 | -3.37825 | 8500 ft | 208 kts | 186° |
| 2026-04-30 21:37 | 54.21582 | -3.37862 | 8500 ft | 208 kts | 186° |
| 2026-04-30 21:38 | 54.20141 | -3.37898 | 8500 ft | 208 kts | 186° |
| 2026-04-30 21:38 | 54.18692 | -3.37935 | 8500 ft | 208 kts | 186° |
| 2026-04-30 21:38 | 54.17238 | -3.37971 | 8500 ft | 208 kts | 186° |
| 2026-04-30 21:38 | 54.15785 | -3.38008 | 8500 ft | 208 kts | 186° |
| 2026-04-30 21:39 | 54.14352 | -3.38044 | 8500 ft | 208 kts | 186° |
| 2026-04-30 21:39 | 54.12898 | -3.38081 | 8500 ft | 208 kts | 186° |
| 2026-04-30 21:39 | 54.11450 | -3.38118 | 8500 ft | 208 kts | 186° |
| 2026-04-30 21:39 | 54.09997 | -3.38156 | 8500 ft | 208 kts | 186° |
| 2026-04-30 21:40 | 54.08543 | -3.38193 | 8500 ft | 208 kts | 186° |
| 2026-04-30 21:40 | 54.07093 | -3.38230 | 8500 ft | 208 kts | 186° |
| 2026-04-30 21:40 | 54.05641 | -3.38268 | 8500 ft | 208 kts | 186° |
| 2026-04-30 21:40 | 54.04207 | -3.38305 | 8500 ft | 208 kts | 186° |
| 2026-04-30 21:41 | 54.02749 | -3.38343 | 8500 ft | 208 kts | 186° |
| 2026-04-30 21:41 | 54.01800 | -3.38367 | 8500 ft | 208 kts | 186° |
| 2026-04-30 21:41 | 54.00333 | -3.38406 | 8500 ft | 208 kts | 186° |
| 2026-04-30 21:41 | 53.98409 | -3.38490 | 8500 ft | 208 kts | 187° |
| 2026-04-30 21:42 | 53.97430 | -3.38556 | 8500 ft | 208 kts | 188° |
| 2026-04-30 21:42 | 53.96003 | -3.38669 | 8500 ft | 208 kts | 188° |
| 2026-04-30 21:42 | 53.94559 | -3.38790 | 8500 ft | 208 kts | 188° |
| 2026-04-30 21:42 | 53.93109 | -3.38914 | 8500 ft | 208 kts | 188° |
| 2026-04-30 21:43 | 53.91664 | -3.39038 | 8500 ft | 208 kts | 188° |
| 2026-04-30 21:43 | 53.90219 | -3.39165 | 8369 ft | 213 kts | 188° |
| 2026-04-30 21:43 | 53.88716 | -3.39303 | 8196 ft | 217 kts | 188° |
| 2026-04-30 21:43 | 53.87196 | -3.39453 | 8022 ft | 219 kts | 189° |
| 2026-04-30 21:44 | 53.85663 | -3.39631 | 7847 ft | 220 kts | 189° |
| 2026-04-30 21:44 | 53.84151 | -3.39819 | 7674 ft | 221 kts | 189° |
| 2026-04-30 21:44 | 53.82616 | -3.40015 | 7499 ft | 221 kts | 189° |
| 2026-04-30 21:44 | 53.81083 | -3.40212 | 7324 ft | 220 kts | 189° |
| 2026-04-30 21:45 | 53.79551 | -3.40409 | 7148 ft | 220 kts | 189° |
| 2026-04-30 21:45 | 53.78048 | -3.40600 | 6969 ft | 211 kts | 189° |
| 2026-04-30 21:45 | 53.76624 | -3.40772 | 6792 ft | 204 kts | 189° |
| 2026-04-30 21:45 | 53.75191 | -3.40944 | 6589 ft | 211 kts | 189° |
| 2026-04-30 21:46 | 53.73693 | -3.41135 | 6315 ft | 218 kts | 189° |
| 2026-04-30 21:46 | 53.72161 | -3.41343 | 6026 ft | 223 kts | 189° |
| 2026-04-30 21:46 | 53.70667 | -3.41550 | 5726 ft | 206 kts | 189° |
| 2026-04-30 21:46 | 53.69187 | -3.41762 | 5426 ft | 218 kts | 189° |
| 2026-04-30 21:47 | 53.67652 | -3.42000 | 5127 ft | 224 kts | 189° |
| 2026-04-30 21:47 | 53.66107 | -3.42256 | 4831 ft | 227 kts | 189° |
| 2026-04-30 21:47 | 53.64498 | -3.42456 | 4533 ft | 229 kts | 186° |
| 2026-04-30 21:47 | 53.62933 | -3.42533 | 4388 ft | 225 kts | 184° |
| 2026-04-30 21:48 | 53.61380 | -3.42572 | 4317 ft | 219 kts | 184° |
| 2026-04-30 21:48 | 53.59873 | -3.42599 | 4301 ft | 214 kts | 184° |
| 2026-04-30 21:48 | 53.58393 | -3.42622 | 4299 ft | 211 kts | 184° |
| 2026-04-30 21:48 | 53.56926 | -3.42642 | 4299 ft | 209 kts | 184° |
| 2026-04-30 21:49 | 53.55491 | -3.42662 | 4299 ft | 208 kts | 184° |
| 2026-04-30 21:49 | 53.54036 | -3.42681 | 4300 ft | 208 kts | 184° |
| 2026-04-30 21:49 | 53.52586 | -3.42700 | 4300 ft | 208 kts | 184° |
| 2026-04-30 21:49 | 53.51143 | -3.42719 | 4300 ft | 207 kts | 184° |
| 2026-04-30 21:50 | 53.49714 | -3.42737 | 4300 ft | 207 kts | 184° |
| 2026-04-30 21:50 | 53.48269 | -3.42756 | 4300 ft | 207 kts | 184° |
| 2026-04-30 21:50 | 53.46824 | -3.42775 | 4300 ft | 207 kts | 184° |
| 2026-04-30 21:50 | 53.45379 | -3.42794 | 4300 ft | 207 kts | 184° |
| 2026-04-30 21:51 | 53.43953 | -3.42813 | 4300 ft | 207 kts | 184° |
| 2026-04-30 21:51 | 53.42509 | -3.42833 | 4300 ft | 207 kts | 184° |
| 2026-04-30 21:51 | 53.41065 | -3.42852 | 4300 ft | 207 kts | 184° |
| 2026-04-30 21:51 | 53.39618 | -3.42872 | 4300 ft | 207 kts | 184° |
| 2026-04-30 21:52 | 53.38192 | -3.42892 | 4300 ft | 207 kts | 184° |
| 2026-04-30 21:52 | 53.36745 | -3.42912 | 4300 ft | 207 kts | 184° |
| 2026-04-30 21:52 | 53.35296 | -3.42932 | 4300 ft | 207 kts | 184° |
| 2026-04-30 21:52 | 53.33865 | -3.42952 | 4300 ft | 207 kts | 184° |
| 2026-04-30 21:53 | 53.32419 | -3.42893 | 4236 ft | 211 kts | 178° |
| 2026-04-30 21:53 | 53.30971 | -3.42232 | 4067 ft | 219 kts | 158° |
| 2026-04-30 21:53 | 53.29619 | -3.41051 | 3899 ft | 222 kts | 152° |
| 2026-04-30 21:53 | 53.28250 | -3.39759 | 3724 ft | 224 kts | 152° |
| 2026-04-30 21:54 | 53.26915 | -3.38501 | 3586 ft | 222 kts | 152° |
| 2026-04-30 21:54 | 53.25567 | -3.37236 | 3517 ft | 219 kts | 152° |
| 2026-04-30 21:54 | 53.24252 | -3.36006 | 3501 ft | 215 kts | 152° |
| 2026-04-30 21:54 | 53.22967 | -3.34805 | 3499 ft | 212 kts | 152° |
| 2026-04-30 21:55 | 53.21681 | -3.33605 | 3499 ft | 211 kts | 152° |
| 2026-04-30 21:55 | 53.20394 | -3.32431 | 3499 ft | 210 kts | 153° |
| 2026-04-30 21:55 | 53.19097 | -3.31326 | 3500 ft | 209 kts | 154° |
| 2026-04-30 21:55 | 53.17788 | -3.30236 | 3500 ft | 209 kts | 154° |
| 2026-04-30 21:56 | 53.16478 | -3.29167 | 3500 ft | 209 kts | 156° |
| 2026-04-30 21:56 | 53.15170 | -3.28176 | 3500 ft | 209 kts | 156° |
| 2026-04-30 21:56 | 53.13864 | -3.27132 | 3500 ft | 209 kts | 154° |
| 2026-04-30 21:56 | 53.12589 | -3.25951 | 3500 ft | 209 kts | 149° |
| 2026-04-30 21:57 | 53.11380 | -3.24636 | 3500 ft | 209 kts | 147° |
| 2026-04-30 21:57 | 53.10181 | -3.23268 | 3500 ft | 209 kts | 146° |
| 2026-04-30 21:57 | 53.08985 | -3.21887 | 3500 ft | 209 kts | 146° |
| 2026-04-30 21:57 | 53.07787 | -3.20501 | 3500 ft | 209 kts | 146° |
| 2026-04-30 21:58 | 53.06584 | -3.19142 | 3500 ft | 209 kts | 147° |
| 2026-04-30 21:58 | 53.05366 | -3.17813 | 3500 ft | 209 kts | 148° |
| 2026-04-30 21:58 | 53.04142 | -3.16547 | 3500 ft | 209 kts | 150° |
| 2026-04-30 21:58 | 53.02878 | -3.15359 | 3500 ft | 209 kts | 152° |
| 2026-04-30 21:59 | 53.01588 | -3.14228 | 3500 ft | 209 kts | 153° |
| 2026-04-30 21:59 | 53.00317 | -3.13134 | 3641 ft | 202 kts | 154° |
| 2026-04-30 21:59 | 52.99083 | -3.12072 | 3811 ft | 197 kts | 154° |
| 2026-04-30 22:00 | 52.96694 | -3.09996 | 4153 ft | 193 kts | 154° |
| 2026-04-30 22:00 | 52.94327 | -3.07904 | 4501 ft | 192 kts | 154° |
| 2026-04-30 22:00 | 52.93150 | -3.06849 | 4676 ft | 192 kts | 154° |
| 2026-04-30 22:01 | 52.91972 | -3.05785 | 4851 ft | 192 kts | 154° |
| 2026-04-30 22:01 | 52.90812 | -3.04727 | 5025 ft | 192 kts | 154° |
| 2026-04-30 22:01 | 52.89629 | -3.03639 | 5201 ft | 193 kts | 154° |
| 2026-04-30 22:01 | 52.88469 | -3.02564 | 5374 ft | 193 kts | 154° |
| 2026-04-30 22:02 | 52.87287 | -3.01484 | 5551 ft | 193 kts | 155° |
| 2026-04-30 22:02 | 52.86108 | -3.00407 | 5726 ft | 193 kts | 155° |
| 2026-04-30 22:02 | 52.84942 | -2.99335 | 5900 ft | 194 kts | 155° |
| 2026-04-30 22:02 | 52.83762 | -2.98237 | 6076 ft | 194 kts | 154° |
| 2026-04-30 22:03 | 52.82590 | -2.97109 | 6252 ft | 195 kts | 154° |
| 2026-04-30 22:03 | 52.81439 | -2.95971 | 6426 ft | 195 kts | 154° |
| 2026-04-30 22:03 | 52.80270 | -2.94827 | 6602 ft | 195 kts | 155° |
| 2026-04-30 22:03 | 52.79097 | -2.93692 | 6778 ft | 195 kts | 155° |
| 2026-04-30 22:04 | 52.77917 | -2.92554 | 6954 ft | 195 kts | 155° |
| 2026-04-30 22:04 | 52.76753 | -2.91431 | 7127 ft | 196 kts | 155° |
| 2026-04-30 22:04 | 52.74379 | -2.89143 | 7435 ft | 199 kts | 155° |
| 2026-04-30 22:05 | 52.73166 | -2.87979 | 7491 ft | 204 kts | 155° |
| 2026-04-30 22:05 | 52.71936 | -2.86806 | 7501 ft | 209 kts | 155° |
| 2026-04-30 22:05 | 52.70661 | -2.85596 | 7502 ft | 212 kts | 155° |
| 2026-04-30 22:05 | 52.69373 | -2.84376 | 7501 ft | 215 kts | 155° |
| 2026-04-30 22:06 | 52.68067 | -2.83142 | 7501 ft | 216 kts | 155° |
| 2026-04-30 22:06 | 52.65467 | -2.80691 | 7500 ft | 217 kts | 155° |
| 2026-04-30 22:06 | 52.64152 | -2.79452 | 7500 ft | 217 kts | 155° |
| 2026-04-30 22:07 | 52.62837 | -2.78214 | 7500 ft | 217 kts | 155° |
| 2026-04-30 22:07 | 52.61541 | -2.76995 | 7500 ft | 217 kts | 155° |
| 2026-04-30 22:07 | 52.60226 | -2.75759 | 7500 ft | 217 kts | 155° |
| 2026-04-30 22:07 | 52.58911 | -2.74523 | 7500 ft | 217 kts | 155° |
| 2026-04-30 22:08 | 52.57598 | -2.73290 | 7500 ft | 217 kts | 155° |
| 2026-04-30 22:08 | 52.56285 | -2.72058 | 7500 ft | 217 kts | 155° |
| 2026-04-30 22:08 | 52.54989 | -2.70841 | 7500 ft | 217 kts | 155° |
| 2026-04-30 22:08 | 52.53674 | -2.69608 | 7500 ft | 217 kts | 155° |
| 2026-04-30 22:09 | 52.52362 | -2.68378 | 7500 ft | 217 kts | 155° |
| 2026-04-30 22:09 | 52.51046 | -2.67145 | 7500 ft | 217 kts | 155° |
| 2026-04-30 22:09 | 52.49733 | -2.65916 | 7500 ft | 217 kts | 155° |
| 2026-04-30 22:09 | 52.48433 | -2.64699 | 7500 ft | 217 kts | 155° |
| 2026-04-30 22:10 | 52.47120 | -2.63471 | 7500 ft | 217 kts | 155° |
| 2026-04-30 22:10 | 52.45807 | -2.62243 | 7500 ft | 217 kts | 155° |
| 2026-04-30 22:10 | 52.44490 | -2.61013 | 7500 ft | 217 kts | 155° |
| 2026-04-30 22:10 | 52.43191 | -2.59800 | 7500 ft | 217 kts | 155° |
| 2026-04-30 22:11 | 52.40560 | -2.57346 | 7500 ft | 217 kts | 155° |
| 2026-04-30 22:11 | 52.39247 | -2.56122 | 7491 ft | 217 kts | 155° |
| 2026-04-30 22:11 | 52.37924 | -2.54893 | 7323 ft | 224 kts | 155° |
| 2026-04-30 22:12 | 52.36554 | -2.53627 | 7149 ft | 227 kts | 155° |
| 2026-04-30 22:12 | 52.35167 | -2.52349 | 6973 ft | 229 kts | 155° |
| 2026-04-30 22:12 | 52.33771 | -2.51065 | 6796 ft | 229 kts | 155° |
| 2026-04-30 22:12 | 52.32392 | -2.49799 | 6622 ft | 230 kts | 155° |
| 2026-04-30 22:13 | 52.30996 | -2.48519 | 6446 ft | 230 kts | 155° |
| 2026-04-30 22:13 | 52.29597 | -2.47244 | 6269 ft | 230 kts | 155° |
| 2026-04-30 22:13 | 52.28195 | -2.45977 | 6092 ft | 230 kts | 155° |
| 2026-04-30 22:13 | 52.26807 | -2.44734 | 5917 ft | 229 kts | 155° |
| 2026-04-30 22:14 | 52.25399 | -2.43486 | 5740 ft | 229 kts | 155° |
| 2026-04-30 22:14 | 52.23991 | -2.42249 | 5564 ft | 229 kts | 155° |
| 2026-04-30 22:14 | 52.22583 | -2.41025 | 5387 ft | 229 kts | 155° |
| 2026-04-30 22:14 | 52.21189 | -2.39825 | 5213 ft | 229 kts | 155° |
| 2026-04-30 22:15 | 52.19772 | -2.38622 | 5037 ft | 228 kts | 155° |
| 2026-04-30 22:15 | 52.18361 | -2.37451 | 4860 ft | 227 kts | 155° |
| 2026-04-30 22:15 | 52.16969 | -2.36309 | 4684 ft | 226 kts | 155° |
| 2026-04-30 22:15 | 52.15560 | -2.35179 | 4509 ft | 225 kts | 155° |
| 2026-04-30 22:16 | 52.14165 | -2.34016 | 4333 ft | 225 kts | 154° |
| 2026-04-30 22:16 | 52.12773 | -2.32823 | 4156 ft | 224 kts | 153° |
| 2026-04-30 22:17 | 52.08657 | -2.29300 | 3643 ft | 222 kts | 153° |
| 2026-04-30 22:17 | 52.07293 | -2.28142 | 3508 ft | 221 kts | 153° |
| 2026-04-30 22:17 | 52.04552 | -2.25823 | 3171 ft | 221 kts | 153° |
| 2026-04-30 22:18 | 52.03197 | -2.24685 | 3003 ft | 221 kts | 153° |
| 2026-04-30 22:18 | 52.00465 | -2.22410 | 2671 ft | 220 kts | 153° |
| 2026-04-30 22:19 | 51.97821 | -2.20182 | 2299 ft | 206 kts | 150° |
| 2026-04-30 22:19 | 51.96658 | -2.19103 | 2037 ft | 179 kts | 149° |
| 2026-04-30 22:19 | 51.94785 | -2.17316 | 1510 ft | 131 kts | 149° |
| 2026-04-30 22:20 | 51.94039 | -2.16597 | 1262 ft | 119 kts | 149° |
| 2026-04-30 22:20 | 51.92702 | -2.15356 | 922 ft | 101 kts | 152° |
| 2026-04-30 22:20 | 51.92087 | -2.14873 | 804 ft | 98 kts | 156° |
| 2026-04-30 22:21 | 51.91490 | -2.14485 | 738 ft | 91 kts | 160° |
| 2026-04-30 22:21 | 51.90899 | -2.14186 | 634 ft | 85 kts | 167° |
| 2026-04-30 22:21 | 51.90314 | -2.14139 | 510 ft | 84 kts | 186° |
| 2026-04-30 22:21 | 51.89804 | -2.14440 | 361 ft | 73 kts | 216° |
| 2026-04-30 22:22 | 51.89534 | -2.15081 | 240 ft | 66 kts | 254° |
| 2026-04-30 22:22 | 51.89465 | -2.15791 | 106 ft | 62 kts | 264° |
| 2026-04-30 22:22 | 51.89453 | -2.16127 | 106 ft | 9 kts | 278° |
| 2026-04-30 22:22 | 51.89430 | -2.16091 | 106 ft | 12 kts | 72° |
| 2026-04-30 22:23 | 51.89437 | -2.16000 | 106 ft | 14 kts | 91° |
| 2026-04-30 22:23 | 51.89415 | -2.15881 | 106 ft | 13 kts | 122° |
| 2026-04-30 22:23 | 51.89373 | -2.15829 | 106 ft | 7 kts | 195° |
| 2026-04-30 22:23 | 51.89369 | -2.15832 | 106 ft | 0 kts | 230° |